Time;durP1;ratioP1;P1;durP2;ratioP2;P2;SDS_P1;SDS_P2;PMS_P1;PMS_P2;Temp;Humidity;BMP_temperature;BMP_pressure;BME280_temperature;BME280_humidity;BME280_pressure;Samples;Min_cycle;Max_cycle;Signal;HPM_P1;HPM_P2
2021/09/15 00:00:58;;;;;;;7.60;3.60;;;19.90;99.90;;;;;;5054263;28;20388;-91
2021/09/15 00:03:24;;;;;;;8.55;3.70;;;20.00;99.90;;;;;;5055314;28;20209;-91
2021/09/15 00:05:50;;;;;;;6.72;3.85;;;20.00;99.90;;;;;;5054625;28;20029;-91
2021/09/15 00:08:16;;;;;;;12.38;3.50;;;19.90;99.90;;;;;;5054958;28;20025;-91
2021/09/15 00:10:42;;;;;;;5.65;3.70;;;19.90;99.90;;;;;;5054353;28;20079;-91
2021/09/15 00:13:08;;;;;;;8.38;3.47;;;19.90;99.90;;;;;;5055035;28;20025;-91
2021/09/15 00:15:33;;;;;;;8.73;3.40;;;20.00;99.90;;;;;;5059433;28;20511;-90
2021/09/15 00:17:59;;;;;;;9.55;3.33;;;20.10;99.90;;;;;;5057218;28;20017;-90
2021/09/15 00:20:25;;;;;;;6.95;3.60;;;20.10;99.90;;;;;;5055822;28;20116;-91
2021/09/15 00:22:51;;;;;;;8.70;3.47;;;20.10;99.90;;;;;;5054610;28;20063;-91
2021/09/15 00:25:16;;;;;;;4.57;3.72;;;20.10;99.90;;;;;;5054507;28;20024;-91
2021/09/15 00:27:42;;;;;;;5.15;3.38;;;20.00;99.90;;;;;;5054296;28;20021;-91
2021/09/15 00:30:09;;;;;;;9.63;3.70;;;20.00;99.90;;;;;;5054300;28;20025;-91
2021/09/15 00:32:34;;;;;;;6.53;3.85;;;19.90;99.90;;;;;;5054443;28;20029;-90
2021/09/15 00:35:00;;;;;;;8.32;3.50;;;19.90;99.90;;;;;;5053904;28;20044;-90
2021/09/15 00:37:26;;;;;;;7.80;3.55;;;19.90;99.90;;;;;;5054652;28;20021;-91
2021/09/15 00:39:52;;;;;;;5.45;3.13;;;20.00;99.90;;;;;;5053584;28;20108;-91
2021/09/15 00:42:17;;;;;;;5.25;3.28;;;19.90;99.90;;;;;;5053454;28;20025;-91
2021/09/15 00:44:43;;;;;;;7.40;3.50;;;20.00;99.90;;;;;;5054197;28;20017;-90
2021/09/15 00:47:09;;;;;;;7.97;3.28;;;20.00;99.90;;;;;;5053836;28;20024;-91
2021/09/15 00:49:34;;;;;;;4.57;3.70;;;20.00;99.90;;;;;;5054082;28;20025;-91
2021/09/15 00:52:01;;;;;;;9.13;3.60;;;20.00;99.90;;;;;;5053725;28;20024;-91
2021/09/15 00:54:27;;;;;;;9.52;3.88;;;19.90;99.90;;;;;;5038813;28;20041;-90
2021/09/15 00:56:53;;;;;;;6.05;3.90;;;19.80;99.90;;;;;;5017350;28;20444;-90
2021/09/15 00:59:19;;;;;;;6.45;3.70;;;19.70;99.90;;;;;;5017250;28;20033;-91
2021/09/15 01:01:44;;;;;;;6.63;3.78;;;19.80;99.90;;;;;;5021215;28;20025;-91
2021/09/15 01:04:10;;;;;;;9.50;4.00;;;19.70;99.90;;;;;;5023511;28;20032;-90
2021/09/15 01:06:37;;;;;;;7.88;4.18;;;19.70;99.90;;;;;;5040966;28;20389;-91
2021/09/15 01:09:05;;;;;;;12.80;4.55;;;19.80;99.90;;;;;;5023493;28;20064;-92
2021/09/15 01:11:34;;;;;;;3.97;3.53;;;19.80;99.90;;;;;;5023266;28;20026;-90
2021/09/15 01:14:01;;;;;;;5.60;3.42;;;19.90;99.90;;;;;;5023384;28;20022;-90
2021/09/15 01:16:26;;;;;;;4.53;3.78;;;19.80;99.90;;;;;;5023267;28;20032;-90
2021/09/15 01:18:52;;;;;;;10.68;4.05;;;19.80;99.90;;;;;;5023621;28;20116;-91
2021/09/15 01:21:18;;;;;;;6.13;3.85;;;19.90;99.90;;;;;;5024075;28;20025;-90
2021/09/15 01:23:44;;;;;;;7.40;4.40;;;19.90;99.90;;;;;;5023212;28;20070;-91
2021/09/15 01:26:09;;;;;;;6.88;3.90;;;19.80;99.90;;;;;;5023792;28;20074;-91
2021/09/15 01:28:35;;;;;;;7.22;3.88;;;19.70;99.90;;;;;;5023434;28;20439;-90
2021/09/15 01:31:01;;;;;;;7.50;3.90;;;19.90;99.90;;;;;;5022937;28;20421;-91
2021/09/15 01:33:27;;;;;;;9.65;3.95;;;20.00;99.90;;;;;;5040862;28;20025;-90
2021/09/15 01:35:52;;;;;;;5.63;3.90;;;20.10;99.90;;;;;;5023656;28;20030;-91
2021/09/15 01:38:18;;;;;;;7.18;4.63;;;20.10;99.90;;;;;;5022963;28;20093;-91
2021/09/15 01:40:44;;;;;;;9.93;4.20;;;20.00;99.90;;;;;;5023147;28;20116;-91
2021/09/15 01:43:09;;;;;;;5.47;3.90;;;20.10;99.90;;;;;;5022913;28;20021;-91
2021/09/15 01:45:35;;;;;;;9.00;4.28;;;20.10;99.90;;;;;;5040420;28;20025;-90
2021/09/15 01:48:01;;;;;;;9.38;4.63;;;20.10;99.90;;;;;;5022915;28;20097;-90
2021/09/15 01:50:27;;;;;;;6.22;4.05;;;20.10;99.90;;;;;;5022730;28;20096;-90
2021/09/15 01:52:53;;;;;;;7.22;4.10;;;20.00;99.90;;;;;;5022919;28;20061;-90
2021/09/15 01:55:29;;;;;;;7.10;4.30;;;20.00;99.90;;;;;;5040950;28;20426;-91
2021/09/15 01:57:55;;;;;;;6.82;4.13;;;20.00;99.90;;;;;;5022820;28;20032;-91
2021/09/15 02:00:21;;;;;;;7.53;4.20;;;19.90;99.90;;;;;;5040328;28;20032;-90
2021/09/15 02:02:52;;;;;;;9.77;4.15;;;19.90;99.90;;;;;;5022815;28;20021;-91
2021/09/15 02:05:18;;;;;;;6.28;4.05;;;19.90;99.90;;;;;;5022627;28;20030;-90
2021/09/15 02:07:44;;;;;;;6.25;3.60;;;19.80;99.90;;;;;;5022612;28;20112;-92
2021/09/15 02:10:11;;;;;;;6.07;3.90;;;19.80;99.90;;;;;;5022716;28;20029;-92
2021/09/15 02:12:39;;;;;;;7.18;3.92;;;19.90;99.90;;;;;;5038429;28;20022;-91
2021/09/15 02:15:06;;;;;;;9.95;4.15;;;19.90;99.90;;;;;;5019749;28;20034;-91
2021/09/15 02:17:32;;;;;;;11.27;4.53;;;19.90;99.90;;;;;;5036982;28;20389;-90
2021/09/15 02:19:58;;;;;;;7.55;3.95;;;19.90;99.90;;;;;;5019608;28;20096;-90
2021/09/15 02:22:23;;;;;;;5.78;4.32;;;19.90;99.90;;;;;;5020237;28;20017;-91
2021/09/15 02:24:49;;;;;;;6.03;4.32;;;19.90;99.90;;;;;;5022985;28;20028;-90
2021/09/15 02:27:15;;;;;;;7.72;4.40;;;19.90;99.90;;;;;;5021781;28;20080;-91
2021/09/15 02:29:41;;;;;;;5.05;3.88;;;20.00;99.90;;;;;;5019890;28;20025;-90
2021/09/15 02:32:06;;;;;;;7.90;4.43;;;20.00;99.90;;;;;;5019798;28;20026;-91
2021/09/15 02:34:32;;;;;;;9.07;4.57;;;19.90;99.90;;;;;;5037103;28;20025;-90
2021/09/15 02:36:58;;;;;;;10.18;4.25;;;19.80;99.90;;;;;;5018863;28;20036;-90
2021/09/15 02:39:23;;;;;;;9.10;4.53;;;19.70;99.90;;;;;;5018851;28;20022;-91
2021/09/15 02:41:49;;;;;;;7.10;3.90;;;19.70;99.90;;;;;;5019150;28;20018;-90
2021/09/15 02:44:15;;;;;;;8.43;3.97;;;19.70;99.90;;;;;;5019026;28;20076;-90
2021/09/15 02:46:40;;;;;;;7.28;4.45;;;19.80;99.90;;;;;;5019067;28;20025;-90
2021/09/15 02:49:06;;;;;;;9.73;4.22;;;19.80;99.90;;;;;;5018873;28;20030;-91
2021/09/15 02:51:32;;;;;;;5.93;4.25;;;19.80;99.90;;;;;;5019151;28;20029;-92
2021/09/15 02:53:57;;;;;;;7.13;3.88;;;19.90;99.90;;;;;;5038837;28;20049;-91
2021/09/15 02:56:23;;;;;;;5.38;4.18;;;19.90;99.90;;;;;;5055355;28;20059;-90
2021/09/15 02:58:49;;;;;;;11.60;4.00;;;19.90;99.90;;;;;;5055206;28;20420;-91
2021/09/15 03:01:14;;;;;;;6.28;3.92;;;19.90;99.90;;;;;;5056487;28;20056;-91
2021/09/15 03:03:40;;;;;;;12.00;4.32;;;20.00;99.90;;;;;;5055300;28;20075;-90
2021/09/15 03:06:06;;;;;;;8.95;4.00;;;20.00;99.90;;;;;;5056405;28;20028;-92
2021/09/15 03:08:32;;;;;;;6.18;3.50;;;20.00;99.90;;;;;;5054832;28;20025;-90
2021/09/15 03:10:57;;;;;;;9.35;4.22;;;20.00;99.90;;;;;;5054839;28;20485;-90
2021/09/15 03:13:23;;;;;;;7.05;3.95;;;20.00;99.90;;;;;;5055975;28;20127;-91
2021/09/15 03:15:49;;;;;;;8.48;4.40;;;20.00;99.90;;;;;;5055134;28;20025;-90
2021/09/15 03:18:14;;;;;;;7.97;4.07;;;20.00;99.90;;;;;;5056065;28;20056;-90
2021/09/15 03:20:40;;;;;;;5.85;3.60;;;20.00;99.90;;;;;;5054775;28;20028;-91
2021/09/15 03:23:06;;;;;;;11.38;3.97;;;20.00;99.90;;;;;;5054516;28;20542;-91
2021/09/15 03:25:32;;;;;;;5.03;3.72;;;20.00;99.90;;;;;;5054357;28;20111;-91
2021/09/15 03:27:58;;;;;;;9.73;4.07;;;20.00;99.90;;;;;;5054521;28;20559;-92
2021/09/15 03:30:24;;;;;;;10.45;4.20;;;20.00;99.90;;;;;;5054594;28;20032;-90
2021/09/15 03:32:49;;;;;;;7.95;3.92;;;19.90;99.90;;;;;;5054372;28;20025;-90
2021/09/15 03:35:15;;;;;;;9.30;3.72;;;19.90;99.90;;;;;;5054135;28;20066;-91
2021/09/15 03:37:41;;;;;;;6.80;4.25;;;19.90;99.90;;;;;;5054250;28;20029;-90
2021/09/15 03:40:07;;;;;;;8.48;3.92;;;19.90;99.90;;;;;;5054332;28;20025;-90
2021/09/15 03:42:33;;;;;;;9.23;4.18;;;19.90;99.90;;;;;;5054287;28;20017;-90
2021/09/15 03:44:59;;;;;;;7.20;3.75;;;19.90;99.90;;;;;;5055012;28;20028;-90
2021/09/15 03:47:25;;;;;;;7.57;4.35;;;19.90;99.90;;;;;;5054188;28;20025;-90
2021/09/15 03:49:50;;;;;;;7.25;4.00;;;19.80;99.90;;;;;;5054030;28;20028;-90
2021/09/15 03:52:16;;;;;;;6.22;3.78;;;19.80;99.90;;;;;;5055250;28;20025;-90
2021/09/15 03:54:43;;;;;;;7.28;3.75;;;19.90;99.90;;;;;;5053830;28;20080;-90
2021/09/15 03:57:09;;;;;;;11.95;4.38;;;19.80;99.90;;;;;;5053888;28;20028;-90
2021/09/15 03:59:34;;;;;;;6.25;3.63;;;19.80;99.90;;;;;;5053905;28;20029;-90
2021/09/15 04:02:00;;;;;;;9.32;3.92;;;19.70;99.90;;;;;;5053937;28;20017;-90
2021/09/15 04:04:26;;;;;;;9.55;3.70;;;19.80;99.90;;;;;;5053621;28;20064;-90
2021/09/15 04:06:52;;;;;;;8.32;4.07;;;19.80;99.90;;;;;;5053710;28;20027;-90
2021/09/15 04:09:18;;;;;;;6.78;4.00;;;19.80;99.90;;;;;;5053663;28;20025;-91
2021/09/15 04:11:43;;;;;;;9.40;4.30;;;19.80;99.90;;;;;;5053772;28;20021;-90
2021/09/15 04:14:09;;;;;;;11.70;4.15;;;19.80;99.90;;;;;;5053513;28;20036;-92
2021/09/15 04:16:35;;;;;;;6.75;4.28;;;19.70;99.90;;;;;;5055149;28;20025;-91
2021/09/15 04:19:00;;;;;;;9.15;4.45;;;19.70;99.90;;;;;;5054074;28;20071;-90
2021/09/15 04:21:26;;;;;;;11.13;5.00;;;19.70;99.90;;;;;;5054249;28;20540;-91
2021/09/15 04:31:54;;;;;;;7.07;4.75;;;19.60;99.90;;;;;;5059658;28;20039;-91
2021/09/15 04:34:20;;;;;;;6.45;4.38;;;19.50;99.90;;;;;;5061778;28;20100;-92
2021/09/15 04:36:46;;;;;;;7.15;4.30;;;19.50;99.90;;;;;;5060892;28;20025;-92
2021/09/15 04:39:11;;;;;;;6.75;4.18;;;19.40;99.90;;;;;;5056356;28;20025;-93
2021/09/15 04:41:39;;;;;;;7.88;4.32;;;19.40;99.90;;;;;;5054772;28;20435;-93
2021/09/15 04:44:05;;;;;;;7.53;4.30;;;19.40;99.90;;;;;;5054103;28;20074;-92
2021/09/15 04:46:30;;;;;;;9.32;4.28;;;19.40;99.90;;;;;;5036968;28;20029;-93
2021/09/15 04:48:56;;;;;;;7.28;4.13;;;19.40;99.90;;;;;;5053768;28;20072;-93
2021/09/15 04:51:22;;;;;;;8.27;4.43;;;19.30;99.90;;;;;;5054126;28;20445;-92
2021/09/15 04:53:49;;;;;;;10.50;4.45;;;19.30;99.90;;;;;;5036537;28;20049;-91
2021/09/15 04:56:15;;;;;;;10.65;4.57;;;19.30;99.90;;;;;;5053230;28;20542;-92
2021/09/15 04:58:40;;;;;;;9.73;4.88;;;19.30;99.90;;;;;;5053099;28;20029;-91
2021/09/15 05:01:07;;;;;;;7.03;4.60;;;19.20;99.90;;;;;;5054397;28;20456;-92
2021/09/15 05:03:33;;;;;;;8.15;4.20;;;19.30;99.90;;;;;;5053438;28;20021;-91
2021/09/15 05:05:59;;;;;;;6.65;4.40;;;19.30;99.90;;;;;;5053885;28;20048;-91
2021/09/15 05:08:24;;;;;;;9.15;4.13;;;19.30;99.90;;;;;;5052834;28;20469;-92
2021/09/15 05:10:50;;;;;;;4.65;3.83;;;19.30;99.90;;;;;;5053672;28;20481;-92
2021/09/15 05:13:16;;;;;;;8.90;4.35;;;19.40;99.90;;;;;;5053204;28;20389;-92
2021/09/15 05:15:41;;;;;;;7.38;4.30;;;19.20;99.90;;;;;;5052916;28;20021;-90
2021/09/15 05:18:07;;;;;;;7.40;4.50;;;19.20;99.90;;;;;;5052742;28;20052;-89
2021/09/15 05:20:33;;;;;;;8.75;4.20;;;19.20;99.90;;;;;;5052179;28;20028;-91
2021/09/15 05:22:59;;;;;;;6.93;4.40;;;19.20;99.90;;;;;;5053413;28;20078;-91
2021/09/15 05:25:25;;;;;;;8.02;4.63;;;19.20;99.90;;;;;;5052920;28;20021;-91
2021/09/15 05:27:51;;;;;;;7.55;4.28;;;19.30;99.90;;;;;;5052969;28;20074;-90
2021/09/15 05:30:17;;;;;;;8.15;4.47;;;19.30;99.90;;;;;;5053443;28;20075;-91
2021/09/15 05:32:43;;;;;;;10.20;4.50;;;19.30;99.90;;;;;;5053419;28;20029;-91
2021/09/15 05:35:10;;;;;;;6.47;3.97;;;19.40;99.90;;;;;;5053510;28;20120;-91
2021/09/15 05:37:37;;;;;;;7.15;4.20;;;19.50;99.90;;;;;;5053402;28;20400;-91
2021/09/15 05:40:04;;;;;;;9.10;4.28;;;19.60;99.90;;;;;;5053956;28;20055;-90
2021/09/15 05:42:30;;;;;;;7.78;4.30;;;19.60;99.90;;;;;;5055295;28;20025;-91
2021/09/15 05:45:01;;;;;;;7.13;4.53;;;19.40;99.90;;;;;;5055764;28;20025;-93
2021/09/15 05:47:27;;;;;;;6.95;4.45;;;19.50;99.90;;;;;;5056816;28;20495;-91
2021/09/15 05:49:53;;;;;;;9.00;4.32;;;19.30;99.90;;;;;;5059457;28;20056;-91
2021/09/15 05:52:18;;;;;;;7.75;4.68;;;19.30;99.90;;;;;;5059340;28;20476;-92
2021/09/15 05:54:44;;;;;;;8.32;4.65;;;19.30;99.90;;;;;;5058816;28;20529;-91
2021/09/15 05:57:10;;;;;;;9.95;4.50;;;19.30;99.90;;;;;;5060025;28;20052;-91
2021/09/15 05:59:35;;;;;;;6.20;4.18;;;19.30;99.90;;;;;;5058037;28;20127;-92
2021/09/15 06:02:01;;;;;;;6.93;4.40;;;19.30;99.90;;;;;;5057530;28;20476;-91
2021/09/15 06:04:27;;;;;;;9.02;4.70;;;19.40;99.90;;;;;;5057667;28;20504;-92
2021/09/15 06:06:53;;;;;;;7.95;4.78;;;19.30;99.90;;;;;;5059559;28;20017;-93
2021/09/15 06:09:18;;;;;;;8.27;4.68;;;19.30;99.90;;;;;;5061618;28;20036;-92
2021/09/15 06:11:44;;;;;;;7.45;4.47;;;19.30;99.90;;;;;;5060278;28;20067;-92
2021/09/15 06:14:10;;;;;;;7.18;4.38;;;19.20;99.90;;;;;;5060169;28;20024;-92
2021/09/15 06:16:36;;;;;;;12.25;4.95;;;19.20;99.90;;;;;;5060874;28;20100;-92
2021/09/15 06:19:04;;;;;;;10.25;4.90;;;19.20;99.90;;;;;;5063760;28;20036;-92
2021/09/15 06:21:30;;;;;;;9.77;5.18;;;19.30;99.90;;;;;;5062377;28;20403;-91
2021/09/15 06:23:56;;;;;;;7.63;4.63;;;19.30;99.90;;;;;;5058900;28;20071;-92
2021/09/15 06:26:25;;;;;;;11.32;5.07;;;19.30;99.90;;;;;;5059821;28;20548;-92
2021/09/15 06:28:54;;;;;;;8.60;4.47;;;19.40;99.90;;;;;;5059830;28;20532;-93
2021/09/15 06:31:21;;;;;;;6.93;4.47;;;19.50;99.90;;;;;;5058157;28;20029;-93
2021/09/15 06:33:48;;;;;;;9.77;4.18;;;19.50;99.90;;;;;;5058218;28;20481;-93
2021/09/15 06:36:15;;;;;;;9.32;4.53;;;19.60;99.90;;;;;;5058008;28;20178;-91
2021/09/15 06:38:45;;;;;;;8.25;4.47;;;19.50;99.90;;;;;;5058436;28;20029;-92
2021/09/15 06:41:11;;;;;;;6.80;4.30;;;19.40;99.90;;;;;;5062524;28;20005;-92
2021/09/15 06:43:38;;;;;;;6.78;4.20;;;19.40;99.90;;;;;;5078416;28;20073;-92
2021/09/15 06:46:04;;;;;;;8.55;4.60;;;19.30;99.90;;;;;;5073825;28;20033;-93
2021/09/15 06:48:30;;;;;;;8.40;4.03;;;19.30;99.90;;;;;;5059885;28;20484;-92
2021/09/15 06:50:55;;;;;;;8.32;4.57;;;19.30;99.90;;;;;;5058135;28;20032;-92
2021/09/15 06:53:21;;;;;;;8.63;4.80;;;19.30;99.90;;;;;;5059428;28;20033;-93
2021/09/15 06:55:47;;;;;;;9.80;4.32;;;19.30;99.90;;;;;;5058578;28;20021;-93
2021/09/15 06:58:13;;;;;;;4.85;4.15;;;19.40;99.90;;;;;;5060242;28;20017;-93
2021/09/15 07:00:38;;;;;;;6.75;4.28;;;19.40;99.90;;;;;;5058416;28;20087;-94
2021/09/15 07:03:04;;;;;;;8.65;4.55;;;19.50;99.90;;;;;;5059460;28;20025;-93
2021/09/15 07:05:30;;;;;;;9.18;5.05;;;19.30;99.90;;;;;;5059003;28;20461;-92
2021/09/15 07:07:56;;;;;;;8.63;4.20;;;19.10;99.90;;;;;;5058458;28;20017;-92
2021/09/15 07:10:22;;;;;;;8.77;4.25;;;19.10;99.90;;;;;;5056851;28;20087;-94
2021/09/15 07:12:48;;;;;;;8.48;4.40;;;19.00;99.90;;;;;;5056456;28;20082;-93
2021/09/15 07:15:15;;;;;;;10.07;4.50;;;19.00;99.90;;;;;;5057160;28;20315;-93
2021/09/15 07:17:42;;;;;;;6.13;3.50;;;19.00;99.90;;;;;;5055913;28;20029;-94
2021/09/15 07:20:09;;;;;;;4.55;3.70;;;19.00;99.90;;;;;;5055962;28;20411;-92
2021/09/15 07:22:34;;;;;;;7.80;4.72;;;18.90;99.90;;;;;;5055832;28;20017;-92
2021/09/15 07:25:00;;;;;;;7.10;4.70;;;18.90;99.90;;;;;;5056319;28;20025;-92
2021/09/15 07:27:26;;;;;;;9.55;4.63;;;18.80;99.90;;;;;;5056425;28;20021;-92
2021/09/15 07:29:52;;;;;;;11.38;4.30;;;18.90;99.90;;;;;;5056693;28;20032;-94
2021/09/15 07:32:17;;;;;;;7.43;4.07;;;18.90;99.90;;;;;;5058358;28;20116;-93
2021/09/15 07:34:45;;;;;;;6.38;3.85;;;19.10;99.90;;;;;;5056513;28;20028;-93
2021/09/15 07:37:14;;;;;;;7.63;3.20;;;19.00;99.90;;;;;;5055794;28;20044;-94
2021/09/15 07:39:41;;;;;;;6.78;3.65;;;19.00;99.90;;;;;;5055148;28;20027;-93
2021/09/15 07:42:07;;;;;;;7.03;3.55;;;19.10;99.90;;;;;;5055561;28;20457;-93
2021/09/15 07:44:32;;;;;;;7.15;3.58;;;19.10;99.90;;;;;;5054404;28;20021;-94
2021/09/15 07:46:58;;;;;;;10.35;3.67;;;19.00;99.90;;;;;;5054574;28;20017;-92
2021/09/15 07:49:24;;;;;;;7.78;3.70;;;19.00;99.90;;;;;;5054116;28;20060;-94
2021/09/15 07:51:49;;;;;;;11.40;4.18;;;19.00;99.90;;;;;;5054797;28;20021;-94
2021/09/15 07:54:15;;;;;;;11.45;3.97;;;19.00;99.90;;;;;;5055411;28;20130;-94
2021/09/15 07:56:41;;;;;;;9.30;3.40;;;19.00;99.90;;;;;;5054546;28;20104;-92
2021/09/15 07:59:06;;;;;;;8.10;3.72;;;19.00;99.90;;;;;;5054342;28;20415;-89
2021/09/15 08:01:34;;;;;;;9.35;4.00;;;18.90;99.90;;;;;;5054283;28;20033;-93
2021/09/15 08:03:59;;;;;;;10.07;4.10;;;18.70;99.90;;;;;;5054226;28;20091;-93
2021/09/15 08:06:25;;;;;;;8.52;4.10;;;18.70;99.90;;;;;;5054176;28;20025;-94
2021/09/15 08:08:52;;;;;;;5.40;3.70;;;18.70;99.90;;;;;;5054861;28;20033;-93
2021/09/15 08:11:18;;;;;;;9.90;4.30;;;18.70;99.90;;;;;;5054091;28;20511;-92
2021/09/15 08:13:44;;;;;;;9.88;4.18;;;18.60;99.90;;;;;;5054492;28;20025;-95
2021/09/15 08:16:10;;;;;;;8.95;4.72;;;18.70;99.90;;;;;;5054330;28;20025;-95
2021/09/15 08:18:36;;;;;;;8.88;5.07;;;18.70;99.90;;;;;;5054132;28;20032;-96
2021/09/15 08:21:02;;;;;;;11.13;4.85;;;18.60;99.90;;;;;;5054795;28;20021;-93
2021/09/15 08:23:29;;;;;;;11.27;4.40;;;18.60;99.90;;;;;;5053817;28;20049;-93
2021/09/15 08:25:56;;;;;;;13.65;4.47;;;18.60;99.90;;;;;;5054085;28;20051;-95
2021/09/15 08:28:22;;;;;;;8.77;4.72;;;18.70;99.90;;;;;;5053435;28;20112;-95
2021/09/15 08:30:48;;;;;;;9.32;4.75;;;18.70;99.90;;;;;;5053718;28;20021;-93
2021/09/15 08:33:14;;;;;;;10.10;4.30;;;18.80;99.90;;;;;;5054020;28;20124;-94
2021/09/15 08:35:40;;;;;;;8.52;5.10;;;19.00;99.90;;;;;;5054182;28;20526;-94
2021/09/15 08:38:10;;;;;;;7.72;4.63;;;18.90;99.90;;;;;;5053669;28;20120;-95
2021/09/15 08:40:37;;;;;;;10.80;5.18;;;18.80;99.90;;;;;;5053315;28;20120;-94
2021/09/15 08:43:03;;;;;;;9.13;5.47;;;18.90;99.90;;;;;;5053810;28;20032;-94
2021/09/15 08:45:28;;;;;;;8.02;5.13;;;18.80;99.90;;;;;;5053655;28;20021;-95
2021/09/15 08:47:56;;;;;;;12.98;5.72;;;18.90;99.90;;;;;;5054895;28;20358;-95
2021/09/15 08:50:23;;;;;;;8.30;5.35;;;18.80;99.90;;;;;;5056416;28;20025;-95
2021/09/15 08:52:49;;;;;;;9.82;5.20;;;18.90;99.90;;;;;;5067798;28;20025;-93
2021/09/15 08:55:15;;;;;;;10.18;5.82;;;18.90;99.90;;;;;;5038397;28;20044;-94
2021/09/15 08:57:41;;;;;;;10.88;4.93;;;18.80;99.90;;;;;;5020200;28;20481;-94
2021/09/15 09:00:10;;;;;;;9.00;4.72;;;18.90;99.90;;;;;;5020817;28;20464;-96
2021/09/15 09:02:38;;;;;;;11.13;4.57;;;18.90;99.90;;;;;;5018880;28;20025;-93
2021/09/15 09:05:04;;;;;;;9.43;4.68;;;19.00;99.90;;;;;;5019053;28;20021;-94
2021/09/15 09:07:33;;;;;;;8.63;5.25;;;19.00;99.90;;;;;;5017932;28;20079;-93
2021/09/15 09:10:10;;;;;;;13.38;4.93;;;19.00;99.90;;;;;;5017502;28;20030;-89
2021/09/15 09:12:38;;;;;;;7.93;5.13;;;18.90;99.90;;;;;;5017416;28;20026;-93
2021/09/15 09:15:16;;;;;;;5.82;4.00;;;18.90;99.90;;;;;;5016849;28;20370;-93
2021/09/15 09:17:42;;;;;;;10.00;5.22;;;19.00;99.90;;;;;;5019165;28;20032;-92
2021/09/15 09:20:22;;;;;;;10.35;5.03;;;19.10;99.90;;;;;;5018356;28;20033;-93
2021/09/15 09:23:02;;;;;;;9.48;4.70;;;19.00;99.90;;;;;;5021038;28;20021;-92
2021/09/15 09:25:30;;;;;;;7.95;4.30;;;19.10;99.90;;;;;;5023976;28;20021;-91
2021/09/15 09:27:57;;;;;;;10.25;4.20;;;19.20;99.90;;;;;;5021585;28;20029;-93
2021/09/15 09:30:36;;;;;;;6.72;4.03;;;19.10;99.90;;;;;;5020717;28;20396;-91
2021/09/15 09:33:06;;;;;;;7.43;3.75;;;19.10;99.90;;;;;;5022707;28;20075;-91
2021/09/15 09:35:56;;;;;;;7.80;3.95;;;19.30;99.90;;;;;;5022705;28;20036;-91
2021/09/15 09:38:27;;;;;;;7.90;4.03;;;19.40;99.90;;;;;;5022450;28;20034;-89
2021/09/15 09:41:01;;;;;;;9.07;4.03;;;19.30;99.90;;;;;;5023025;28;20028;-90
2021/09/15 09:43:29;;;;;;;7.07;3.90;;;19.50;99.90;;;;;;5024717;28;20022;-92
2021/09/15 09:45:55;;;;;;;9.10;4.20;;;19.50;99.90;;;;;;5022641;28;20021;-93
2021/09/15 09:48:40;;;;;;;7.60;3.80;;;19.60;99.90;;;;;;5023279;28;20017;-92
2021/09/15 09:51:24;;;;;;;8.52;3.58;;;19.60;99.90;;;;;;5021607;28;20087;-91
2021/09/15 09:54:05;;;;;;;9.75;3.58;;;19.70;99.90;;;;;;5046411;28;20037;-91
2021/09/15 09:56:37;;;;;;;8.90;3.97;;;19.80;99.90;;;;;;5058495;28;20102;-92
2021/09/15 09:59:04;;;;;;;7.88;3.85;;;19.90;99.90;;;;;;5060852;28;20029;-88
2021/09/15 10:01:32;;;;;;;5.13;3.60;;;20.20;99.90;;;;;;5058610;28;20024;-90
2021/09/15 10:04:00;;;;;;;10.95;3.95;;;20.20;99.90;;;;;;5059870;28;20052;-91
2021/09/15 10:06:27;;;;;;;7.28;3.90;;;20.30;99.90;;;;;;5061042;28;20029;-91
2021/09/15 10:08:54;;;;;;;6.53;3.35;;;20.40;99.90;;;;;;5063561;28;20036;-91
2021/09/15 10:11:22;;;;;;;5.35;3.53;;;20.60;99.90;;;;;;5063583;28;20021;-91
2021/09/15 10:13:48;;;;;;;7.20;3.47;;;20.90;99.90;;;;;;5062742;28;20048;-93
2021/09/15 10:16:16;;;;;;;7.60;3.20;;;21.00;99.90;;;;;;5061179;28;20500;-91
2021/09/15 10:18:43;;;;;;;8.30;3.13;;;20.90;99.90;;;;;;5061551;28;20052;-90
2021/09/15 10:21:09;;;;;;;6.70;3.30;;;20.90;99.90;;;;;;5058987;28;20028;-91
2021/09/15 10:24:03;;;;;;;7.05;3.20;;;21.10;99.90;;;;;;5058512;28;20021;-92
2021/09/15 10:26:30;;;;;;;6.57;2.60;;;21.10;99.90;;;;;;5056016;28;20485;-93
2021/09/15 10:29:19;;;;;;;8.95;3.15;;;21.00;99.90;;;;;;5056691;28;20036;-92
2021/09/15 10:32:00;;;;;;;8.20;3.10;;;20.80;99.90;;;;;;5057168;28;20048;-91
2021/09/15 10:34:40;;;;;;;5.85;2.67;;;20.70;99.90;;;;;;5056668;28;20107;-93
2021/09/15 10:37:10;;;;;;;7.55;2.72;;;20.60;99.90;;;;;;5058307;28;20380;-93
2021/09/15 10:40:03;;;;;;;5.80;2.58;;;20.70;99.90;;;;;;5058201;28;20035;-92
2021/09/15 10:42:47;;;;;;;5.82;2.97;;;20.60;99.90;;;;;;5058417;28;20017;-92
2021/09/15 10:45:18;;;;;;;7.47;2.92;;;20.60;99.90;;;;;;5056854;28;20021;-92
2021/09/15 10:47:49;;;;;;;3.35;2.50;;;20.60;99.90;;;;;;5059067;28;20493;-92
2021/09/15 10:50:27;;;;;;;7.97;2.90;;;20.70;99.90;;;;;;5057938;28;20021;-93
2021/09/15 10:53:12;;;;;;;5.35;2.58;;;20.70;99.90;;;;;;5055385;28;20133;-93
2021/09/15 10:56:02;;;;;;;6.38;2.90;;;20.80;99.90;;;;;;5021626;28;20033;-92
2021/09/15 10:58:41;;;;;;;6.25;3.30;;;20.70;99.90;;;;;;5022024;28;20033;-93
2021/09/15 11:01:11;;;;;;;8.40;2.80;;;20.80;99.90;;;;;;5045531;28;20069;-93
2021/09/15 11:03:50;;;;;;;7.38;2.67;;;20.80;99.90;;;;;;5038466;28;20149;-92
2021/09/15 11:06:19;;;;;;;4.28;2.92;;;20.70;99.90;;;;;;5027035;28;20025;-92
2021/09/15 11:08:47;;;;;;;4.40;2.92;;;20.80;99.90;;;;;;5022432;28;20029;-91
2021/09/15 11:11:34;;;;;;;5.95;2.70;;;20.90;99.90;;;;;;5020308;28;20067;-93
2021/09/15 11:14:03;;;;;;;7.78;2.53;;;20.90;99.90;;;;;;5013061;28;20124;-92
2021/09/15 11:16:36;;;;;;;6.95;2.85;;;20.90;99.90;;;;;;5018422;28;20156;-94
2021/09/15 11:19:09;;;;;;;7.38;2.88;;;20.70;99.90;;;;;;5038457;28;20030;-94
2021/09/15 11:21:51;;;;;;;6.07;3.38;;;20.80;99.90;;;;;;5023614;28;20021;-94
2021/09/15 11:24:23;;;;;;;5.35;2.70;;;20.70;99.90;;;;;;5022771;28;20097;-94
2021/09/15 11:26:56;;;;;;;8.82;3.13;;;20.60;99.90;;;;;;5022933;28;20025;-94
2021/09/15 11:29:55;;;;;;;6.30;2.65;;;20.50;99.90;;;;;;5021716;28;20033;-92
2021/09/15 11:32:23;;;;;;;6.93;2.58;;;20.40;99.90;;;;;;5023271;28;20029;-95
2021/09/15 11:34:54;;;;;;;6.68;3.17;;;20.30;99.90;;;;;;5023961;28;20036;-94
2021/09/15 11:37:25;;;;;;;5.80;2.75;;;20.30;99.90;;;;;;5021327;28;20030;-95
2021/09/15 11:39:56;;;;;;;4.72;3.03;;;20.40;99.90;;;;;;5024177;28;20029;-95
2021/09/15 11:42:24;;;;;;;9.90;3.10;;;20.50;99.90;;;;;;5021609;28;20516;-95
2021/09/15 11:44:50;;;;;;;7.45;3.25;;;20.50;99.90;;;;;;5020417;28;20022;-96
2021/09/15 11:47:24;;;;;;;4.57;3.00;;;20.50;99.90;;;;;;5021857;28;20026;-95
2021/09/15 11:49:50;;;;;;;4.43;2.90;;;20.40;99.90;;;;;;5022126;28;20036;-94
2021/09/15 11:52:16;;;;;;;8.32;3.05;;;20.40;99.90;;;;;;5020616;28;20037;-95
2021/09/15 11:54:42;;;;;;;7.13;3.40;;;20.40;99.90;;;;;;5056849;28;20040;-96
2021/09/15 11:57:09;;;;;;;5.82;2.67;;;20.50;99.90;;;;;;5061549;28;20112;-95
2021/09/15 11:59:36;;;;;;;7.03;2.90;;;20.60;99.90;;;;;;5059397;28;20033;-95
2021/09/15 12:02:04;;;;;;;4.93;2.90;;;20.60;99.90;;;;;;5061724;28;20021;-95
2021/09/15 12:04:33;;;;;;;4.50;2.80;;;20.50;99.90;;;;;;5059244;28;20071;-96
2021/09/15 12:07:00;;;;;;;6.80;3.05;;;20.50;99.90;;;;;;5058545;28;20024;-95
2021/09/15 12:09:27;;;;;;;5.93;2.90;;;20.50;99.90;;;;;;5057104;28;20029;-95
2021/09/15 12:11:53;;;;;;;4.95;2.78;;;20.50;99.90;;;;;;5057997;28;20021;-94
2021/09/15 12:14:19;;;;;;;5.43;3.17;;;20.60;99.90;;;;;;5060356;28;20025;-95
2021/09/15 12:16:45;;;;;;;6.95;2.80;;;20.60;99.90;;;;;;5054462;28;20473;-91
2021/09/15 12:19:20;;;;;;;3.50;2.28;;;20.70;99.90;;;;;;5052665;28;20124;-91
2021/09/15 12:21:51;;;;;;;6.57;2.55;;;20.80;99.90;;;;;;5052810;28;20480;-88
2021/09/15 12:24:18;;;;;;;5.57;2.45;;;20.70;99.90;;;;;;5053991;28;20013;-91
2021/09/15 12:26:45;;;;;;;6.45;2.92;;;20.70;99.90;;;;;;5052990;28;20099;-90
2021/09/15 12:29:20;;;;;;;4.88;2.92;;;20.70;99.90;;;;;;5052698;28;20094;-90
2021/09/15 12:31:59;;;;;;;4.88;2.83;;;20.60;99.90;;;;;;5053091;28;20082;-87
2021/09/15 12:34:32;;;;;;;4.82;2.80;;;20.70;99.90;;;;;;5053332;28;20112;-90
2021/09/15 12:37:18;;;;;;;5.22;2.90;;;20.90;99.90;;;;;;5053044;28;20021;-91
2021/09/15 12:39:55;;;;;;;6.95;2.65;;;21.20;99.90;;;;;;5053487;28;20025;-89
2021/09/15 12:42:31;;;;;;;6.35;2.72;;;21.50;99.90;;;;;;5053370;28;20028;-91
2021/09/15 12:45:04;;;;;;;6.75;2.65;;;21.60;99.90;;;;;;5053144;28;20052;-90
2021/09/15 12:47:37;;;;;;;4.07;2.45;;;21.80;99.90;;;;;;5052782;28;20492;-90
2021/09/15 12:50:22;;;;;;;4.65;2.75;;;21.80;99.90;;;;;;5053167;28;20388;-90
2021/09/15 12:53:13;;;;;;;6.43;2.40;;;22.20;99.90;;;;;;5050989;28;20088;-90
2021/09/15 12:55:44;;;;;;;4.10;2.50;;;22.70;99.90;;;;;;5016794;28;20026;-90
2021/09/15 12:58:12;;;;;;;5.57;2.33;;;23.20;99.90;;;;;;5017004;28;20037;-90